Time;durP1;ratioP1;P1;durP2;ratioP2;P2;SDS_P1;SDS_P2;PMS_P1;PMS_P2;Temp;Humidity;BMP_temperature;BMP_pressure;BME280_temperature;BME280_humidity;BME280_pressure;Samples;Min_cycle;Max_cycle;Signal;HPM_P1;HPM_P2
2023/09/15 00:01:40;;;;;;;4.53;3.83;;;;;;;;;;5067555;28;20024;-87
2023/09/15 00:04:06;;;;;;;7.68;4.63;;;;;;;;;;5063660;28;20053;-87
2023/09/15 00:06:36;;;;;;;6.63;4.10;;;;;;;;;;5060151;28;20025;-87
2023/09/15 00:09:14;;;;;;;6.10;4.13;;;;;;;;;;5056957;28;20485;-88
2023/09/15 00:11:40;;;;;;;5.78;3.80;;;;;;;;;;5061250;28;20076;-87
2023/09/15 00:14:10;;;;;;;7.40;3.90;;;;;;;;;;5056803;28;20037;-87
2023/09/15 00:16:38;;;;;;;6.70;4.22;;;;;;;;;;5064609;28;20057;-88
2023/09/15 00:19:05;;;;;;;4.22;3.58;;;;;;;;;;5072772;28;20517;-88
2023/09/15 00:21:32;;;;;;;3.88;3.20;;;;;;;;;;5063812;28;20032;-88
2023/09/15 00:23:57;;;;;;;3.47;2.83;;;;;;;;;;5064058;28;20119;-87
2023/09/15 00:26:23;;;;;;;3.85;3.10;;;;;;;;;;5061306;28;20086;-87
2023/09/15 00:28:50;;;;;;;4.60;3.00;;;;;;;;;;5057161;28;20079;-88
2023/09/15 00:31:16;;;;;;;4.78;3.00;;;;;;;;;;5059264;28;20045;-88
2023/09/15 00:33:41;;;;;;;5.28;3.63;;;;;;;;;;5070484;28;20036;-87
2023/09/15 00:36:07;;;;;;;3.90;3.00;;;;;;;;;;5058268;28;20029;-87
2023/09/15 00:38:34;;;;;;;4.32;3.42;;;;;;;;;;5075554;28;20037;-87
2023/09/15 00:41:00;;;;;;;5.60;3.05;;;;;;;;;;5068608;28;20028;-88
2023/09/15 00:43:25;;;;;;;5.60;3.30;;;;;;;;;;5064174;28;20115;-87
2023/09/15 00:45:51;;;;;;;3.65;3.05;;;;;;;;;;5044838;28;20389;-87
2023/09/15 00:48:18;;;;;;;3.70;3.22;;;;;;;;;;5059448;28;20032;-87
2023/09/15 00:50:45;;;;;;;4.85;3.38;;;;;;;;;;5074324;28;20040;-87
2023/09/15 00:53:19;;;;;;;5.85;4.07;;;;;;;;;;5060024;28;20078;-88
2023/09/15 00:55:46;;;;;;;4.72;3.63;;;;;;;;;;5077923;28;20470;-88
2023/09/15 00:58:15;;;;;;;4.82;4.03;;;;;;;;;;5059488;28;20394;-87
2023/09/15 01:00:42;;;;;;;6.70;3.78;;;;;;;;;;5071318;28;20577;-86
2023/09/15 01:03:09;;;;;;;5.75;3.78;;;;;;;;;;5080158;28;20386;-87
2023/09/15 01:05:36;;;;;;;5.60;4.13;;;;;;;;;;5062133;28;20418;-88
2023/09/15 01:08:02;;;;;;;5.50;3.72;;;;;;;;;;5057669;28;20095;-87
2023/09/15 01:10:28;;;;;;;5.10;3.50;;;;;;;;;;5059134;28;20044;-89
2023/09/15 01:12:54;;;;;;;6.38;3.00;;;;;;;;;;5055925;28;20033;-87
2023/09/15 01:15:29;;;;;;;5.85;2.90;;;;;;;;;;5061739;28;20056;-88
2023/09/15 01:18:13;;;;;;;4.65;2.75;;;;;;;;;;5057200;28;20470;-87
2023/09/15 01:21:07;;;;;;;2.95;2.40;;;;;;;;;;5065932;28;20052;-87
2023/09/15 01:23:51;;;;;;;2.47;2.23;;;;;;;;;;5079155;28;20029;-87
2023/09/15 01:26:43;;;;;;;2.97;2.45;;;;;;;;;;5077763;28;20362;-87
2023/09/15 01:29:46;;;;;;;3.10;2.13;;;;;;;;;;5069780;28;20048;-87
2023/09/15 01:32:14;;;;;;;4.28;2.35;;;;;;;;;;5059183;28;20438;-87
2023/09/15 01:34:46;;;;;;;2.95;2.28;;;;;;;;;;5055009;28;20036;-87
2023/09/15 01:37:12;;;;;;;3.55;2.05;;;;;;;;;;5073655;28;20036;-88
2023/09/15 01:39:37;;;;;;;2.40;2.20;;;;;;;;;;5064395;28;20033;-87
2023/09/15 01:42:03;;;;;;;3.33;2.60;;;;;;;;;;5065701;28;20028;-87
2023/09/15 01:44:29;;;;;;;3.13;2.38;;;;;;;;;;5078150;28;20118;-88
2023/09/15 01:46:54;;;;;;;3.33;2.60;;;;;;;;;;5057947;28;20113;-87
2023/09/15 01:49:21;;;;;;;5.47;2.90;;;;;;;;;;5057399;28;20382;-87
2023/09/15 01:51:48;;;;;;;3.47;2.72;;;;;;;;;;5066003;28;20067;-87
2023/09/15 01:54:14;;;;;;;3.00;2.67;;;;;;;;;;5055772;28;20090;-87
2023/09/15 01:56:40;;;;;;;3.10;2.72;;;;;;;;;;5053859;28;20028;-86
2023/09/15 01:59:06;;;;;;;7.47;2.97;;;;;;;;;;5066233;28;20039;-88
2023/09/15 02:01:31;;;;;;;4.60;3.08;;;;;;;;;;5068853;28;20039;-87
2023/09/15 02:03:57;;;;;;;3.03;2.60;;;;;;;;;;5063577;28;20028;-88
2023/09/15 02:06:22;;;;;;;3.33;2.80;;;;;;;;;;5057694;28;20437;-87
2023/09/15 02:08:48;;;;;;;4.65;3.08;;;;;;;;;;5072763;28;20039;-87
2023/09/15 02:11:13;;;;;;;4.47;3.70;;;;;;;;;;5072270;28;20036;-87
2023/09/15 02:13:40;;;;;;;4.43;3.17;;;;;;;;;;5068799;28;20475;-87
2023/09/15 02:16:06;;;;;;;3.17;2.80;;;;;;;;;;5069413;28;20029;-87
2023/09/15 02:18:32;;;;;;;4.28;2.70;;;;;;;;;;5076937;28;20047;-87
2023/09/15 02:20:57;;;;;;;3.15;2.60;;;;;;;;;;5069170;28;20036;-87
2023/09/15 02:23:24;;;;;;;3.30;2.50;;;;;;;;;;5063518;28;20538;-87
2023/09/15 02:25:50;;;;;;;2.92;2.63;;;;;;;;;;5056788;28;20016;-87
2023/09/15 02:28:19;;;;;;;2.60;2.40;;;;;;;;;;5072306;28;20031;-87
2023/09/15 02:30:45;;;;;;;2.67;2.40;;;;;;;;;;5057551;28;20024;-87
2023/09/15 02:33:10;;;;;;;4.45;2.53;;;;;;;;;;5063327;28;20051;-87
2023/09/15 02:35:36;;;;;;;3.38;2.38;;;;;;;;;;5053737;28;20099;-87
2023/09/15 02:38:02;;;;;;;3.17;2.50;;;;;;;;;;5058848;28;20024;-87
2023/09/15 02:40:28;;;;;;;3.47;2.40;;;;;;;;;;5053864;28;20358;-87
2023/09/15 02:42:54;;;;;;;3.17;2.35;;;;;;;;;;5068143;28;20099;-88
2023/09/15 02:45:19;;;;;;;3.22;2.28;;;;;;;;;;5059044;28;20055;-87
2023/09/15 02:47:46;;;;;;;2.83;2.15;;;;;;;;;;5052393;28;20136;-87
2023/09/15 02:50:12;;;;;;;3.97;2.22;;;;;;;;;;5075903;28;20518;-87
2023/09/15 02:52:37;;;;;;;3.25;2.38;;;;;;;;;;5072119;28;20040;-87
2023/09/15 02:55:08;;;;;;;4.13;2.30;;;;;;;;;;5053438;28;20021;-87
2023/09/15 02:57:34;;;;;;;2.92;2.20;;;;;;;;;;5069365;28;20044;-87
2023/09/15 03:00:07;;;;;;;2.22;2.03;;;;;;;;;;5067920;28;20118;-87
2023/09/15 03:02:33;;;;;;;3.60;2.50;;;;;;;;;;5061666;28;20041;-87
2023/09/15 03:04:58;;;;;;;3.53;2.53;;;;;;;;;;5058952;28;20033;-87
2023/09/15 03:07:24;;;;;;;5.35;2.67;;;;;;;;;;5064237;28;20040;-87
2023/09/15 03:09:49;;;;;;;4.35;2.90;;;;;;;;;;5075142;28;20021;-87
2023/09/15 03:12:15;;;;;;;3.15;2.25;;;;;;;;;;5068760;28;20533;-87
2023/09/15 03:14:41;;;;;;;2.97;2.30;;;;;;;;;;5054942;28;20029;-88
2023/09/15 03:17:07;;;;;;;6.57;2.70;;;;;;;;;;5053265;28;20028;-87
2023/09/15 03:19:34;;;;;;;2.83;2.53;;;;;;;;;;5067650;28;20036;-87
2023/09/15 03:21:59;;;;;;;10.75;3.28;;;;;;;;;;5068220;28;20028;-88
2023/09/15 03:24:25;;;;;;;12.20;2.95;;;;;;;;;;5058303;28;20126;-87
2023/09/15 03:26:51;;;;;;;11.18;3.10;;;;;;;;;;5054065;28;20071;-87
2023/09/15 03:29:16;;;;;;;6.22;2.70;;;;;;;;;;5059384;28;20012;-87
2023/09/15 03:31:42;;;;;;;6.93;2.65;;;;;;;;;;5058402;28;20061;-88
2023/09/15 03:34:08;;;;;;;3.85;2.60;;;;;;;;;;5071619;28;20486;-87
2023/09/15 03:36:34;;;;;;;2.95;2.40;;;;;;;;;;5054468;28;20037;-87
2023/09/15 03:38:59;;;;;;;4.70;2.42;;;;;;;;;;5062470;28;20052;-88
2023/09/15 03:41:27;;;;;;;9.63;2.50;;;;;;;;;;5068998;28;20037;-87
2023/09/15 03:43:53;;;;;;;3.05;2.50;;;;;;;;;;5056318;28;20089;-87
2023/09/15 03:46:19;;;;;;;5.68;2.60;;;;;;;;;;5063537;28;20048;-87
2023/09/15 03:48:44;;;;;;;3.15;2.58;;;;;;;;;;5082322;28;20028;-87
2023/09/15 03:51:10;;;;;;;4.07;2.38;;;;;;;;;;5066961;28;20029;-87
2023/09/15 03:53:35;;;;;;;2.80;2.22;;;;;;;;;;5068010;28;20037;-87
2023/09/15 03:56:01;;;;;;;3.00;2.17;;;;;;;;;;5058034;28;20029;-87
2023/09/15 03:58:28;;;;;;;5.55;2.15;;;;;;;;;;5084153;28;20029;-87
2023/09/15 04:00:54;;;;;;;3.20;2.60;;;;;;;;;;5055780;28;20048;-87
2023/09/15 04:03:21;;;;;;;4.45;2.28;;;;;;;;;;5061365;28;20074;-87
2023/09/15 04:05:46;;;;;;;4.15;2.10;;;;;;;;;;5074941;28;20036;-87
2023/09/15 04:08:13;;;;;;;3.97;2.35;;;;;;;;;;5079376;28;20036;-87
2023/09/15 04:10:38;;;;;;;3.85;2.63;;;;;;;;;;5063429;28;20020;-87
2023/09/15 04:13:04;;;;;;;4.30;2.35;;;;;;;;;;5076449;28;20051;-87
2023/09/15 04:15:29;;;;;;;2.45;2.20;;;;;;;;;;5058934;28;20467;-87
2023/09/15 04:17:55;;;;;;;4.20;3.00;;;;;;;;;;5073446;28;20097;-87
2023/09/15 04:20:21;;;;;;;4.88;2.50;;;;;;;;;;5072357;28;20035;-87
2023/09/15 04:22:47;;;;;;;5.93;2.70;;;;;;;;;;5066927;28;20033;-87
2023/09/15 04:25:13;;;;;;;4.07;2.58;;;;;;;;;;5060392;28;20128;-87
2023/09/15 04:27:39;;;;;;;4.00;2.78;;;;;;;;;;5076341;28;20060;-87
2023/09/15 04:30:07;;;;;;;5.13;2.58;;;;;;;;;;5068219;28;20029;-87
2023/09/15 04:32:38;;;;;;;5.40;2.47;;;;;;;;;;5080084;28;20107;-87
2023/09/15 04:35:08;;;;;;;3.85;2.50;;;;;;;;;;5074697;28;20067;-87
2023/09/15 04:37:34;;;;;;;3.75;2.58;;;;;;;;;;5058030;28;20206;-88
2023/09/15 04:40:01;;;;;;;4.82;2.28;;;;;;;;;;5071422;28;20174;-87
2023/09/15 04:42:27;;;;;;;4.38;2.55;;;;;;;;;;5074216;28;20031;-87
2023/09/15 04:44:53;;;;;;;6.32;2.38;;;;;;;;;;5060486;28;20040;-87
2023/09/15 04:47:35;;;;;;;6.15;2.50;;;;;;;;;;5070469;28;20024;-87
2023/09/15 04:50:08;;;;;;;3.90;2.80;;;;;;;;;;5063074;28;20029;-86
2023/09/15 04:52:34;;;;;;;6.55;3.45;;;;;;;;;;5061663;28;20110;-88
2023/09/15 04:54:59;;;;;;;16.52;3.15;;;;;;;;;;5071928;28;20060;-87
2023/09/15 04:57:25;;;;;;;3.63;2.50;;;;;;;;;;5079819;28;20162;-88
2023/09/15 04:59:53;;;;;;;6.32;3.22;;;;;;;;;;5059635;28;20461;-87
2023/09/15 05:02:22;;;;;;;3.47;2.83;;;;;;;;;;5057032;28;20031;-87
2023/09/15 05:04:48;;;;;;;4.05;3.30;;;;;;;;;;5060319;28;20040;-87
2023/09/15 05:07:15;;;;;;;4.00;3.20;;;;;;;;;;5067642;28;20029;-87
2023/09/15 05:09:40;;;;;;;4.78;3.58;;;;;;;;;;5082128;28;20024;-88
2023/09/15 05:12:06;;;;;;;8.30;4.10;;;;;;;;;;5080235;28;20493;-88
2023/09/15 05:14:31;;;;;;;6.00;4.05;;;;;;;;;;5078038;28;20047;-88
2023/09/15 05:16:58;;;;;;;7.50;4.35;;;;;;;;;;5077972;28;20037;-86
2023/09/15 05:19:24;;;;;;;5.85;4.15;;;;;;;;;;5073183;28;20051;-88
2023/09/15 05:21:50;;;;;;;19.20;4.90;;;;;;;;;;5064459;28;20025;-87
2023/09/15 05:24:16;;;;;;;16.42;4.13;;;;;;;;;;5060146;28;20029;-87
2023/09/15 05:26:42;;;;;;;11.50;4.32;;;;;;;;;;5061284;28;20052;-89
2023/09/15 05:29:08;;;;;;;4.97;3.67;;;;;;;;;;5070660;28;20032;-88
2023/09/15 05:31:34;;;;;;;4.00;3.45;;;;;;;;;;5079647;28;20033;-88
2023/09/15 05:33:59;;;;;;;4.85;3.75;;;;;;;;;;5060964;28;20079;-87
2023/09/15 05:36:25;;;;;;;6.07;3.58;;;;;;;;;;5076992;28;20033;-87
2023/09/15 05:38:52;;;;;;;4.82;3.67;;;;;;;;;;5059786;28;20490;-88
2023/09/15 05:41:18;;;;;;;4.35;3.58;;;;;;;;;;5073111;28;20028;-88
2023/09/15 05:43:44;;;;;;;4.80;3.50;;;;;;;;;;5069506;28;20025;-88
2023/09/15 05:46:10;;;;;;;4.28;3.03;;;;;;;;;;5066805;28;20044;-87
2023/09/15 05:48:35;;;;;;;4.45;3.25;;;;;;;;;;5070862;28;20051;-87
2023/09/15 05:51:06;;;;;;;6.90;3.10;;;;;;;;;;5066027;28;20036;-87
2023/09/15 05:53:32;;;;;;;5.00;3.38;;;;;;;;;;5062831;28;20074;-87
2023/09/15 05:55:57;;;;;;;4.65;3.10;;;;;;;;;;5061153;28;20029;-88
2023/09/15 05:58:23;;;;;;;4.85;3.53;;;;;;;;;;5056685;28;20116;-87
2023/09/15 06:00:50;;;;;;;4.85;3.70;;;;;;;;;;5053689;28;20083;-88
2023/09/15 06:03:16;;;;;;;4.45;3.60;;;;;;;;;;5058275;28;20056;-88
2023/09/15 06:05:41;;;;;;;5.03;3.55;;;;;;;;;;5067492;28;20379;-87
2023/09/15 06:08:08;;;;;;;7.03;3.47;;;;;;;;;;5066314;28;20024;-88
2023/09/15 06:10:36;;;;;;;4.50;3.25;;;;;;;;;;5061693;28;20051;-88
2023/09/15 06:13:01;;;;;;;4.30;3.33;;;;;;;;;;5059142;28;20398;-87
2023/09/15 06:15:27;;;;;;;4.22;3.25;;;;;;;;;;5056234;28;20028;-87
2023/09/15 06:17:52;;;;;;;4.38;3.42;;;;;;;;;;5059873;28;20090;-87
2023/09/15 06:20:18;;;;;;;4.85;3.60;;;;;;;;;;5059025;28;20025;-87
2023/09/15 06:22:44;;;;;;;6.05;3.50;;;;;;;;;;5058375;28;20482;-87
2023/09/15 06:25:10;;;;;;;5.60;3.30;;;;;;;;;;5063102;28;20038;-87
2023/09/15 06:27:35;;;;;;;4.10;3.47;;;;;;;;;;5069800;28;20024;-87
2023/09/15 06:30:03;;;;;;;5.18;3.20;;;;;;;;;;5066288;28;20044;-87
2023/09/15 06:32:28;;;;;;;5.32;3.67;;;;;;;;;;5050218;28;20072;-87
2023/09/15 06:34:54;;;;;;;5.22;4.00;;;;;;;;;;5059528;28;20494;-88
2023/09/15 06:37:20;;;;;;;9.27;4.30;;;;;;;;;;5059884;28;20029;-87
2023/09/15 06:39:45;;;;;;;6.18;4.38;;;;;;;;;;5056231;28;20051;-88
2023/09/15 06:42:10;;;;;;;9.38;4.55;;;;;;;;;;5053214;28;20048;-87
2023/09/15 06:44:40;;;;;;;6.05;4.25;;;;;;;;;;5056571;28;20028;-87
2023/09/15 06:47:05;;;;;;;7.57;4.00;;;;;;;;;;5068530;28;20123;-87
2023/09/15 06:49:32;;;;;;;5.07;3.92;;;;;;;;;;5067414;28;20564;-88
2023/09/15 06:51:58;;;;;;;5.10;3.97;;;;;;;;;;5065668;28;20043;-88
2023/09/15 06:54:23;;;;;;;7.10;3.90;;;;;;;;;;5071581;28;20131;-87
2023/09/15 06:56:50;;;;;;;5.15;4.10;;;;;;;;;;5057840;28;20033;-86
2023/09/15 06:59:16;;;;;;;4.95;4.25;;;;;;;;;;5055715;28;20029;-84
2023/09/15 07:01:42;;;;;;;6.30;4.18;;;;;;;;;;5051218;28;20489;-85
2023/09/15 07:04:08;;;;;;;6.25;4.53;;;;;;;;;;5052816;28;20052;-87
2023/09/15 07:06:34;;;;;;;7.25;4.82;;;;;;;;;;5066415;28;20051;-87
2023/09/15 07:08:59;;;;;;;5.65;4.47;;;;;;;;;;5062784;28;20040;-88
2023/09/15 07:11:25;;;;;;;8.68;5.60;;;;;;;;;;5073313;28;20063;-88
2023/09/15 07:13:50;;;;;;;7.95;6.00;;;;;;;;;;5053491;28;20024;-88
2023/09/15 07:16:16;;;;;;;9.73;5.80;;;;;;;;;;5057969;28;20174;-86
2023/09/15 07:18:41;;;;;;;8.05;5.43;;;;;;;;;;5059230;28;20033;-86
2023/09/15 07:21:07;;;;;;;7.55;5.65;;;;;;;;;;5056543;28;20956;-87
2023/09/15 07:23:32;;;;;;;8.93;5.45;;;;;;;;;;5056809;28;20029;-87
2023/09/15 07:25:58;;;;;;;5.90;5.00;;;;;;;;;;5067931;28;20056;-88
2023/09/15 07:28:23;;;;;;;7.38;5.40;;;;;;;;;;5067721;28;20059;-87
2023/09/15 07:30:49;;;;;;;8.20;5.43;;;;;;;;;;5063672;28;20036;-87
2023/09/15 07:33:15;;;;;;;7.50;5.35;;;;;;;;;;5058329;28;20063;-87
2023/09/15 07:35:41;;;;;;;7.90;5.22;;;;;;;;;;5061553;28;20048;-87
2023/09/15 07:38:07;;;;;;;7.82;5.03;;;;;;;;;;5061615;28;20408;-87
2023/09/15 07:40:33;;;;;;;5.63;4.85;;;;;;;;;;5058903;28;20028;-88
2023/09/15 07:42:59;;;;;;;8.40;5.35;;;;;;;;;;5060049;28;20108;-87
2023/09/15 07:45:25;;;;;;;9.63;5.30;;;;;;;;;;5060726;28;20036;-87
2023/09/15 07:47:51;;;;;;;7.00;5.40;;;;;;;;;;5071108;28;20025;-87
2023/09/15 07:50:20;;;;;;;6.47;5.32;;;;;;;;;;5071746;28;20492;-88
2023/09/15 07:52:46;;;;;;;9.95;5.90;;;;;;;;;;5059548;28;20046;-87
2023/09/15 07:55:12;;;;;;;6.32;4.93;;;;;;;;;;5061219;28;20028;-87
2023/09/15 07:57:41;;;;;;;7.22;5.35;;;;;;;;;;5061737;28;20037;-89
2023/09/15 08:00:10;;;;;;;8.57;5.22;;;;;;;;;;5061688;28;20024;-87
2023/09/15 08:02:39;;;;;;;6.30;4.25;;;;;;;;;;5059757;28;20048;-88
2023/09/15 08:05:05;;;;;;;6.63;4.57;;;;;;;;;;5065192;28;20041;-87
2023/09/15 08:07:30;;;;;;;7.78;4.80;;;;;;;;;;5070272;28;20062;-87
2023/09/15 08:09:56;;;;;;;7.22;5.00;;;;;;;;;;5063217;28;20105;-87
2023/09/15 08:12:23;;;;;;;8.02;5.10;;;;;;;;;;5056530;28;20041;-88
2023/09/15 08:14:49;;;;;;;6.55;5.20;;;;;;;;;;5063777;28;20055;-87
2023/09/15 08:17:16;;;;;;;6.40;4.90;;;;;;;;;;5061363;28;20032;-88
2023/09/15 08:19:42;;;;;;;8.32;5.22;;;;;;;;;;5057442;28;20047;-88
2023/09/15 08:22:07;;;;;;;6.45;5.03;;;;;;;;;;5057850;28;20037;-87
2023/09/15 08:24:33;;;;;;;5.88;4.85;;;;;;;;;;5060462;28;20082;-87
2023/09/15 08:26:58;;;;;;;6.40;4.80;;;;;;;;;;5060193;28;20103;-87
2023/09/15 08:29:24;;;;;;;6.35;4.80;;;;;;;;;;5056229;28;20040;-87
2023/09/15 08:31:49;;;;;;;7.30;4.60;;;;;;;;;;5062508;28;20050;-88
2023/09/15 08:34:15;;;;;;;7.15;4.90;;;;;;;;;;5059725;28;20112;-88
2023/09/15 08:36:41;;;;;;;5.70;4.43;;;;;;;;;;5053895;28;20804;-88
2023/09/15 08:39:07;;;;;;;6.45;4.90;;;;;;;;;;5056579;28;20025;-87
2023/09/15 08:41:40;;;;;;;4.97;4.20;;;;;;;;;;5052139;28;20439;-88
2023/09/15 08:44:09;;;;;;;7.63;4.30;;;;;;;;;;5052241;28;20153;-87
2023/09/15 08:46:39;;;;;;;5.28;4.55;;;;;;;;;;5064251;28;20115;-87
2023/09/15 08:49:06;;;;;;;6.82;4.68;;;;;;;;;;5068834;28;20060;-88
2023/09/15 08:51:32;;;;;;;8.15;4.53;;;;;;;;;;5060291;28;20033;-87
2023/09/15 08:53:59;;;;;;;6.40;4.30;;;;;;;;;;5057417;28;20077;-87
2023/09/15 08:56:25;;;;;;;6.70;4.60;;;;;;;;;;5065385;28;20106;-88
2023/09/15 08:58:50;;;;;;;7.18;4.93;;;;;;;;;;5062169;28;20044;-87
2023/09/15 09:01:18;;;;;;;6.70;4.70;;;;;;;;;;5054504;28;20089;-87
2023/09/15 09:03:44;;;;;;;7.88;4.75;;;;;;;;;;5063111;28;20170;-88
2023/09/15 09:06:12;;;;;;;8.50;4.68;;;;;;;;;;5066843;28;20037;-87
2023/09/15 09:08:41;;;;;;;7.68;5.35;;;;;;;;;;5059338;28;20112;-88
2023/09/15 09:11:07;;;;;;;8.05;5.22;;;;;;;;;;5058499;28;20401;-88
2023/09/15 09:13:33;;;;;;;7.13;4.72;;;;;;;;;;5062970;28;20029;-88
2023/09/15 09:15:58;;;;;;;8.70;4.97;;;;;;;;;;5060267;28;20042;-88
2023/09/15 09:18:24;;;;;;;7.20;4.90;;;;;;;;;;5059131;28;20039;-88
2023/09/15 09:20:50;;;;;;;5.95;4.80;;;;;;;;;;5059521;28;20033;-88
2023/09/15 09:23:20;;;;;;;7.20;4.35;;;;;;;;;;5070607;28;20080;-88
2023/09/15 09:25:46;;;;;;;6.45;4.38;;;;;;;;;;5069719;28;20029;-88
2023/09/15 09:28:13;;;;;;;6.20;4.13;;;;;;;;;;5061721;28;20032;-88
2023/09/15 09:30:39;;;;;;;8.38;4.57;;;;;;;;;;5064198;28;20116;-88
2023/09/15 09:33:05;;;;;;;7.18;4.18;;;;;;;;;;5059090;28;20116;-88
2023/09/15 09:35:31;;;;;;;5.35;4.30;;;;;;;;;;5054640;28;20033;-87
2023/09/15 09:38:00;;;;;;;5.65;3.70;;;;;;;;;;5059192;28;20039;-86
2023/09/15 09:40:26;;;;;;;4.93;4.22;;;;;;;;;;5054422;28;20048;-89
2023/09/15 09:42:52;;;;;;;5.85;4.60;;;;;;;;;;5058976;28;20025;-90
2023/09/15 09:45:27;;;;;;;5.53;4.45;;;;;;;;;;5062409;28;20040;-90
2023/09/15 09:47:58;;;;;;;5.97;4.40;;;;;;;;;;5061671;28;20037;-88
2023/09/15 09:50:26;;;;;;;6.32;4.38;;;;;;;;;;5060592;28;20066;-88
2023/09/15 09:52:52;;;;;;;5.25;4.30;;;;;;;;;;5057901;28;20029;-88
2023/09/15 09:55:17;;;;;;;5.78;4.28;;;;;;;;;;5060779;28;20051;-87
2023/09/15 09:57:43;;;;;;;6.50;4.50;;;;;;;;;;5057731;28;20379;-87
2023/09/15 10:00:09;;;;;;;7.55;4.10;;;;;;;;;;5052656;28;20033;-87
2023/09/15 10:02:36;;;;;;;6.10;4.22;;;;;;;;;;5064469;28;20801;-88
2023/09/15 10:05:04;;;;;;;5.35;4.10;;;;;;;;;;5062649;28;20036;-89
2023/09/15 10:07:29;;;;;;;4.50;3.83;;;;;;;;;;5056783;28;20040;-89
2023/09/15 10:09:55;;;;;;;9.95;4.60;;;;;;;;;;5072107;28;20040;-88
2023/09/15 10:12:23;;;;;;;8.52;4.35;;;;;;;;;;5060342;28;20101;-89
2023/09/15 10:14:50;;;;;;;4.85;4.05;;;;;;;;;;5066054;28;20041;-88
2023/09/15 10:17:18;;;;;;;6.10;4.72;;;;;;;;;;5055081;28;20045;-88
2023/09/15 10:19:46;;;;;;;7.10;4.40;;;;;;;;;;5054841;28;20079;-88
2023/09/15 10:22:13;;;;;;;6.10;4.22;;;;;;;;;;5055393;28;20474;-88
2023/09/15 10:24:47;;;;;;;5.97;4.07;;;;;;;;;;5056646;28;20059;-88
2023/09/15 10:27:14;;;;;;;7.30;4.10;;;;;;;;;;5064007;28;20040;-88
2023/09/15 10:29:43;;;;;;;6.30;4.50;;;;;;;;;;5069281;28;20032;-89
2023/09/15 10:32:09;;;;;;;6.22;4.43;;;;;;;;;;5069912;28;20672;-89
2023/09/15 10:34:36;;;;;;;5.30;4.13;;;;;;;;;;5058185;28;20059;-88
2023/09/15 10:37:02;;;;;;;6.03;4.32;;;;;;;;;;5068604;28;20040;-89
2023/09/15 10:39:35;;;;;;;4.60;3.83;;;;;;;;;;5055868;28;20554;-89
2023/09/15 10:42:05;;;;;;;5.35;4.25;;;;;;;;;;5054776;28;20029;-89
2023/09/15 10:44:31;;;;;;;5.38;4.10;;;;;;;;;;5064373;28;20036;-89
2023/09/15 10:46:56;;;;;;;4.20;3.80;;;;;;;;;;5066631;28;20222;-89
2023/09/15 10:49:22;;;;;;;6.30;4.20;;;;;;;;;;5057176;28;20045;-89
2023/09/15 10:52:01;;;;;;;6.72;4.50;;;;;;;;;;5062436;28;20028;-89
2023/09/15 10:54:32;;;;;;;5.80;4.30;;;;;;;;;;5065629;28;20690;-88
2023/09/15 10:56:58;;;;;;;8.68;4.63;;;;;;;;;;5061643;28;20174;-88
2023/09/15 10:59:26;;;;;;;6.20;4.00;;;;;;;;;;5065534;28;20044;-88
2023/09/15 11:01:52;;;;;;;5.15;4.30;;;;;;;;;;5070037;28;20063;-88
2023/09/15 11:04:20;;;;;;;7.70;4.35;;;;;;;;;;5067925;28;20451;-88
2023/09/15 11:06:48;;;;;;;6.80;3.90;;;;;;;;;;5065856;28;20032;-88
2023/09/15 11:09:14;;;;;;;6.05;4.30;;;;;;;;;;5069707;28;20064;-88
2023/09/15 11:11:47;;;;;;;5.55;4.25;;;;;;;;;;5064166;28;20032;-88
2023/09/15 11:14:17;;;;;;;7.75;4.50;;;;;;;;;;5062079;28;20119;-88
2023/09/15 11:16:49;;;;;;;8.05;4.88;;;;;;;;;;5062145;28;20041;-89
2023/09/15 11:19:17;;;;;;;6.80;5.18;;;;;;;;;;5062718;28;20040;-88
2023/09/15 11:21:44;;;;;;;8.10;5.93;;;;;;;;;;5060378;28;20054;-89
2023/09/15 11:24:10;;;;;;;9.05;5.88;;;;;;;;;;5065865;28;20476;-88
2023/09/15 11:26:47;;;;;;;7.47;5.88;;;;;;;;;;5071129;28;20055;-89
2023/09/15 11:29:14;;;;;;;6.90;5.65;;;;;;;;;;5067184;28;20043;-88
2023/09/15 11:31:40;;;;;;;9.63;5.50;;;;;;;;;;5062642;28;20047;-89
2023/09/15 11:34:06;;;;;;;8.90;5.88;;;;;;;;;;5080186;28;20101;-89
2023/09/15 11:36:35;;;;;;;8.07;5.47;;;;;;;;;;5078243;28;20040;-89
2023/09/15 11:39:11;;;;;;;9.50;6.50;;;;;;;;;;5058164;28;20029;-89
2023/09/15 11:41:49;;;;;;;8.73;6.47;;;;;;;;;;5063980;28;20131;-88
2023/09/15 11:44:15;;;;;;;9.18;6.63;;;;;;;;;;5065544;28;20029;-88
2023/09/15 11:46:42;;;;;;;10.55;7.25;;;;;;;;;;5066019;28;20451;-88
2023/09/15 11:49:07;;;;;;;9.05;7.18;;;;;;;;;;5058425;28;20490;-88
2023/09/15 11:51:36;;;;;;;11.68;6.90;;;;;;;;;;5065713;28;20086;-89
2023/09/15 11:54:03;;;;;;;8.90;6.55;;;;;;;;;;5073949;28;20048;-87
2023/09/15 11:56:29;;;;;;;8.82;6.43;;;;;;;;;;5078340;28;20067;-89
2023/09/15 11:58:55;;;;;;;11.75;6.82;;;;;;;;;;5087122;28;20028;-89
2023/09/15 12:01:21;;;;;;;9.30;6.70;;;;;;;;;;5068883;28;20397;-89
2023/09/15 12:03:50;;;;;;;10.25;6.97;;;;;;;;;;5061760;28;20052;-89
2023/09/15 12:06:19;;;;;;;9.38;6.60;;;;;;;;;;5061530;28;20040;-89
2023/09/15 12:08:50;;;;;;;10.55;7.68;;;;;;;;;;5073144;28;20482;-86
2023/09/15 12:11:17;;;;;;;10.60;7.03;;;;;;;;;;5082975;28;20033;-86
2023/09/15 12:13:43;;;;;;;12.23;6.97;;;;;;;;;;5061559;28;20490;-84
2023/09/15 12:16:19;;;;;;;10.73;7.43;;;;;;;;;;5069347;28;20116;-84
2023/09/15 12:18:46;;;;;;;10.00;7.18;;;;;;;;;;5067746;28;20041;-84
2023/09/15 12:21:13;;;;;;;9.57;7.13;;;;;;;;;;5068719;28;20406;-84
2023/09/15 12:23:39;;;;;;;9.57;7.30;;;;;;;;;;5075614;28;20133;-84
2023/09/15 12:26:05;;;;;;;11.05;7.05;;;;;;;;;;5082472;28;20343;-84
2023/09/15 12:28:31;;;;;;;10.73;7.20;;;;;;;;;;5072449;28;20086;-84
2023/09/15 12:30:58;;;;;;;9.77;7.18;;;;;;;;;;5075245;28;20033;-84
2023/09/15 12:33:25;;;;;;;8.85;7.25;;;;;;;;;;5070395;28;20044;-83
2023/09/15 12:35:52;;;;;;;14.93;7.30;;;;;;;;;;5065186;28;20032;-84
2023/09/15 12:38:17;;;;;;;10.00;7.25;;;;;;;;;;5064488;28;20058;-88
2023/09/15 12:40:48;;;;;;;8.82;7.00;;;;;;;;;;5069643;28;20048;-88
2023/09/15 12:43:13;;;;;;;9.35;6.80;;;;;;;;;;5069919;28;20109;-85
2023/09/15 12:45:39;;;;;;;12.43;7.72;;;;;;;;;;5079825;28;20028;-88
2023/09/15 12:48:04;;;;;;;9.80;7.63;;;;;;;;;;5065071;28;20036;-88
2023/09/15 12:50:32;;;;;;;10.27;7.35;;;;;;;;;;5060339;28;20071;-88
2023/09/15 12:52:57;;;;;;;9.32;7.63;;;;;;;;;;5058687;28;20036;-87
2023/09/15 12:55:23;;;;;;;10.63;7.43;;;;;;;;;;5056587;28;20040;-88
2023/09/15 12:57:48;;;;;;;11.27;7.63;;;;;;;;;;5055341;28;20074;-88
2023/09/15 13:00:15;;;;;;;10.13;8.02;;;;;;;;;;5065461;28;20402;-87
2023/09/15 13:02:41;;;;;;;10.57;7.60;;;;;;;;;;5074178;28;20036;-88
2023/09/15 13:05:07;;;;;;;10.50;7.63;;;;;;;;;;5060538;28;20028;-87
2023/09/15 13:07:36;;;;;;;8.77;7.45;;;;;;;;;;5064579;28;20032;-88
2023/09/15 13:10:02;;;;;;;8.38;7.07;;;;;;;;;;5070161;28;20040;-87
2023/09/15 13:12:28;;;;;;;11.27;8.52;;;;;;;;;;5057342;28;20070;-87
2023/09/15 13:14:53;;;;;;;12.63;8.30;;;;;;;;;;5055494;28;20102;-87
2023/09/15 13:17:19;;;;;;;11.73;7.88;;;;;;;;;;5055471;28;20051;-88
2023/09/15 13:19:45;;;;;;;9.70;7.55;;;;;;;;;;5057715;28;20035;-88
2023/09/15 13:22:10;;;;;;;10.43;7.38;;;;;;;;;;5063970;28;20448;-87
2023/09/15 13:24:36;;;;;;;8.80;7.47;;;;;;;;;;5065229;28;20065;-87
2023/09/15 13:27:02;;;;;;;11.27;8.35;;;;;;;;;;5059675;28;20044;-87
2023/09/15 13:29:28;;;;;;;10.38;7.38;;;;;;;;;;5072702;28;20059;-87
2023/09/15 13:31:53;;;;;;;13.18;7.72;;;;;;;;;;5057271;28;20037;-88
2023/09/15 13:34:20;;;;;;;10.40;7.25;;;;;;;;;;5054253;28;20162;-88
2023/09/15 13:36:45;;;;;;;10.90;7.20;;;;;;;;;;5069967;28;20528;-88
2023/09/15 13:39:11;;;;;;;10.55;7.30;;;;;;;;;;5068761;28;20033;-87
2023/09/15 13:41:36;;;;;;;9.05;6.45;;;;;;;;;;5065697;28;20033;-88
2023/09/15 13:44:03;;;;;;;9.77;6.43;;;;;;;;;;5053579;28;20032;-87
2023/09/15 13:46:28;;;;;;;9.30;6.50;;;;;;;;;;5064834;28;20033;-87
2023/09/15 13:48:54;;;;;;;9.57;6.80;;;;;;;;;;5059196;28;20124;-87
2023/09/15 13:51:19;;;;;;;12.02;7.05;;;;;;;;;;5057295;28;20410;-88
2023/09/15 13:53:45;;;;;;;11.40;6.80;;;;;;;;;;5052823;28;20076;-87
2023/09/15 13:56:10;;;;;;;8.45;5.90;;;;;;;;;;5057253;28;20089;-88
2023/09/15 13:58:39;;;;;;;8.13;6.00;;;;;;;;;;5056556;28;20119;-88
2023/09/15 14:01:05;;;;;;;8.50;6.43;;;;;;;;;;5057777;28;20411;-88
2023/09/15 14:03:31;;;;;;;8.10;5.85;;;;;;;;;;5060816;28;20055;-88
2023/09/15 14:05:57;;;;;;;9.55;6.07;;;;;;;;;;5062026;28;20032;-87
2023/09/15 14:08:23;;;;;;;7.43;5.35;;;;;;;;;;5059143;28;20433;-88
2023/09/15 14:10:50;;;;;;;8.98;6.00;;;;;;;;;;5054745;28;20802;-88
2023/09/15 14:13:16;;;;;;;6.10;5.50;;;;;;;;;;5057158;28;20021;-87
2023/09/15 14:15:43;;;;;;;8.05;5.35;;;;;;;;;;5054420;28;20048;-87
2023/09/15 14:18:10;;;;;;;6.43;5.25;;;;;;;;;;5056591;28;20036;-88
2023/09/15 14:20:35;;;;;;;6.22;5.35;;;;;;;;;;5065080;28;20091;-87
2023/09/15 14:23:01;;;;;;;6.90;5.10;;;;;;;;;;5071154;28;20064;-87
2023/09/15 14:25:28;;;;;;;6.38;5.32;;;;;;;;;;5057168;28;20078;-87
2023/09/15 14:27:53;;;;;;;6.22;5.28;;;;;;;;;;5057306;28;20029;-87
2023/09/15 14:30:19;;;;;;;7.88;5.22;;;;;;;;;;5068571;28;20110;-88
2023/09/15 14:32:44;;;;;;;7.28;5.47;;;;;;;;;;5054743;28;20040;-88
2023/09/15 14:35:11;;;;;;;6.10;5.50;;;;;;;;;;5054235;28;20068;-87
2023/09/15 14:37:36;;;;;;;7.25;5.38;;;;;;;;;;5065864;28;20032;-88
2023/09/15 14:40:05;;;;;;;6.82;5.53;;;;;;;;;;5064614;28;20040;-87